메인 페이지
METAR-TAF:

METAR-TAF

공항 :

치타, 러시아

위도: 52-05N, 경도: 113-29E, 고도: 685m

현재 날씨관측

예보는 13분 전, 15:30시(UTC)에 발표되었습니다.
여러 방향의 바람 2kt
온도 13°C
습도 88%
기압 1009 hPa
시정 10km 이상

METAR: UIAA 191530Z AUTO VRB01MPS 9999 NCD 13/11 Q1009 RMK QFE698/0931

시각: 00:43 (15:43 UTC)

예보

예보는 1 시간 43분 전, 14:00시(UTC)에 발표되었습니다.
예보 대상 시간: 19일 15시부터 20일 15시까지 (UTC)
서북서6kt
시정 10km 이상
고도 4000ft 상공 구름 보통, 적란운.
일시적
19일 18시부터 19일 24시까지 (UTC)
시정: 0500m
고도 100ft 상공
안개

TAF: UIAA 191400Z 1915/2015 30003MPS 9999 SCT040CB TEMPO 1918/1924 0500 FG VV001

4,000개 이상의 공항 관측 자료 및 예보 (METAR 및 TAF 보고).

지도상에서 검색 가능한 기상관측소가 노란 점과 빨간 점으로 표시되어 있습니다.

기상관측소 명을 보려면 표시 위로 마우스를 이동하세요.

날씨 관측과 예보를 보려면 클릭하세요.

지도 변경 : 확대하려면 엑스 표시가 있는 녹색 버튼, 축소하려면 빼기 표시가 있는 녹색 버튼, 다음 페이지의 지도를 보려면 녹색 화살표를 클릭하세요.


METAR-TAF: